createdAt,value
2023-04-30T00:00:25.465Z,102376.25
2023-04-30T00:02:52.763Z,102341.47
2023-04-30T00:05:19.809Z,102382.75
2023-04-30T00:07:46.539Z,102379.06
2023-04-30T00:10:13.243Z,102380.91
2023-04-30T00:12:40.158Z,102376.63
2023-04-30T00:15:14.705Z,102377.72
2023-04-30T00:17:41.718Z,102387.69
2023-04-30T00:20:14.540Z,102393.31
2023-04-30T00:22:41.587Z,102385.69
2023-04-30T00:25:09.468Z,102377.91
2023-04-30T00:27:36.090Z,102398.47
2023-04-30T00:30:03.112Z,102394.31
2023-04-30T00:32:32.141Z,102393.44
2023-04-30T00:34:58.947Z,102394.69
2023-04-30T00:37:25.671Z,102400.13
2023-04-30T00:39:52.845Z,102391.19
2023-04-30T00:42:21.892Z,102381.56
2023-04-30T00:44:51.023Z,102393.13
2023-04-30T00:47:20.249Z,102391.00
2023-04-30T00:49:49.540Z,102397.38
2023-04-30T00:52:16.320Z,102389.59
2023-04-30T00:54:43.282Z,102390.22
2023-04-30T00:57:15.429Z,102398.47
2023-04-30T00:59:47.339Z,102366.09
2023-04-30T01:02:17.742Z,102394.44
2023-04-30T01:04:44.738Z,102400.88
2023-04-30T01:07:12.781Z,102390.38
2023-04-30T01:09:41.980Z,102388.53
2023-04-30T01:13:04.300Z,102365.13
2023-04-30T01:15:58.670Z,102389.25
2023-04-30T01:18:28.511Z,102388.38
2023-04-30T01:21:08.266Z,102387.63
2023-04-30T01:23:59.415Z,102391.47
2023-04-30T01:26:59.738Z,102392.63
2023-04-30T01:29:27.797Z,102396.31
2023-04-30T01:31:54.702Z,102385.03
2023-04-30T01:34:23.605Z,102396.75
2023-04-30T01:36:54.710Z,102372.47
2023-04-30T01:39:48.633Z,102396.34
2023-04-30T01:42:28.549Z,102400.13
2023-04-30T01:45:13.778Z,102393.97
2023-04-30T01:47:50.386Z,102395.13
2023-04-30T01:50:42.435Z,102387.88
2023-04-30T01:53:14.116Z,102367.75
2023-04-30T01:55:50.080Z,102397.94
2023-04-30T01:58:17.128Z,102366.97
2023-04-30T02:00:43.925Z,102378.53
2023-04-30T02:03:10.886Z,102399.88
2023-04-30T02:05:41.360Z,102370.81
2023-04-30T02:08:08.285Z,102378.88
2023-04-30T02:10:34.968Z,102388.59
2023-04-30T02:13:03.833Z,102380.63
2023-04-30T02:15:30.681Z,102369.34
2023-04-30T02:17:57.535Z,102374.59
2023-04-30T02:20:26.622Z,102377.31
2023-04-30T02:22:53.297Z,102384.47
2023-04-30T02:25:20.076Z,102382.19
2023-04-30T02:27:46.826Z,102392.69
2023-04-30T02:30:13.467Z,102391.06
2023-04-30T02:32:40.335Z,102390.06
2023-04-30T02:35:07.314Z,102400.16
2023-04-30T02:37:33.997Z,102390.25
2023-04-30T02:40:03.167Z,102371.19
2023-04-30T02:42:29.904Z,102376.91
2023-04-30T02:44:56.825Z,102395.34
2023-04-30T02:47:27.958Z,102393.78
2023-04-30T02:49:57.080Z,102397.53
2023-04-30T02:52:24.152Z,102410.22
2023-04-30T02:54:50.944Z,102398.59
2023-04-30T02:57:19.868Z,102392.00
2023-04-30T02:59:46.646Z,102402.59
2023-04-30T03:02:13.822Z,102397.25
2023-04-30T03:04:42.798Z,102385.81
2023-04-30T03:07:09.544Z,102388.75
2023-04-30T03:09:38.734Z,102387.28
2023-04-30T03:12:05.918Z,102386.31
2023-04-30T03:14:34.829Z,102393.50
2023-04-30T03:17:01.459Z,102395.94
2023-04-30T03:19:28.138Z,102400.59
2023-04-30T03:21:55.241Z,102392.78
2023-04-30T03:24:21.993Z,102378.25
2023-04-30T03:26:48.868Z,102400.41
2023-04-30T03:29:17.732Z,102367.84
2023-04-30T03:31:44.481Z,102402.28
2023-04-30T03:34:14.263Z,102395.31
2023-04-30T03:36:41.146Z,102382.25
2023-04-30T03:39:09.943Z,102398.09
2023-04-30T03:41:39.065Z,102389.53
2023-04-30T03:44:06.235Z,102400.91
2023-04-30T03:46:33.046Z,102373.84
2023-04-30T03:48:59.750Z,102399.38
2023-04-30T03:51:28.321Z,102390.56
2023-04-30T03:53:55.005Z,102385.38
2023-04-30T03:56:22.046Z,102396.88
2023-04-30T03:58:51.241Z,102399.66
2023-04-30T04:01:20.752Z,102373.31
2023-04-30T04:03:47.451Z,102397.03
2023-04-30T04:06:14.145Z,102406.97
2023-04-30T04:08:43.507Z,102375.31
2023-04-30T04:11:13.560Z,102404.34
2023-04-30T04:13:40.173Z,102407.13
2023-04-30T04:16:08.796Z,102401.72
2023-04-30T04:18:35.606Z,102400.94
2023-04-30T04:21:04.598Z,102397.38
2023-04-30T04:23:33.366Z,102399.09
2023-04-30T04:26:00.392Z,102384.91
2023-04-30T04:28:27.407Z,102383.03
2023-04-30T04:30:54.052Z,102399.47
2023-04-30T04:33:20.748Z,102400.13
2023-04-30T04:35:49.708Z,102396.44
2023-04-30T04:38:16.475Z,102392.84
2023-04-30T04:40:51.480Z,102274.13
2023-04-30T04:43:20.928Z,102394.91
2023-04-30T04:45:48.180Z,102410.03
2023-04-30T04:48:15.291Z,102393.44
2023-04-30T04:50:45.789Z,102344.84
2023-04-30T04:53:13.406Z,102380.22
2023-04-30T04:55:40.121Z,102401.19
2023-04-30T04:58:09.509Z,102403.75
2023-04-30T05:00:36.120Z,102371.97
2023-04-30T05:03:02.824Z,102380.59
2023-04-30T05:05:29.918Z,102382.56
2023-04-30T05:07:59.039Z,102395.38
2023-04-30T05:10:25.704Z,102393.53
2023-04-30T05:12:52.399Z,102397.44
2023-04-30T05:15:19.174Z,102387.50
2023-04-30T05:17:48.557Z,102384.81
2023-04-30T05:20:15.529Z,102393.56
2023-04-30T05:22:42.300Z,102382.41
2023-04-30T05:25:09.532Z,102388.28
2023-04-30T05:27:36.598Z,102387.34
2023-04-30T05:30:03.407Z,102381.47
2023-04-30T05:32:30.273Z,102385.25
2023-04-30T05:34:57.168Z,102379.91
2023-04-30T05:37:23.898Z,102387.16
2023-04-30T05:39:55.952Z,102369.19
2023-04-30T05:42:22.723Z,102392.53
2023-04-30T05:44:51.815Z,102378.03
2023-04-30T05:47:21.232Z,102381.91
2023-04-30T05:49:50.367Z,102382.81
2023-04-30T05:52:17.827Z,102390.56
2023-04-30T05:54:44.985Z,102392.06
2023-04-30T05:57:11.830Z,102382.78
2023-04-30T05:59:38.624Z,102370.53
2023-04-30T06:02:05.523Z,102369.25
2023-04-30T06:04:32.323Z,102374.47
2023-04-30T06:06:59.315Z,102369.84
2023-04-30T06:09:27.486Z,102378.78
2023-04-30T06:11:57.059Z,102383.72
2023-04-30T06:14:24.272Z,102356.28
2023-04-30T06:16:51.388Z,102344.06
2023-04-30T06:19:27.476Z,102356.00
2023-04-30T06:21:54.373Z,102361.06
2023-04-30T06:24:21.475Z,102349.03
2023-04-30T06:26:59.721Z,102364.31
2023-04-30T06:29:26.659Z,102365.47
2023-04-30T06:31:53.715Z,102375.78
2023-04-30T06:34:21.252Z,102369.97
2023-04-30T06:36:48.176Z,102358.84
2023-04-30T06:39:16.458Z,102363.63
2023-04-30T06:41:47.613Z,102361.16
2023-04-30T06:44:17.324Z,102382.16
2023-04-30T06:46:44.281Z,102368.63
2023-04-30T06:49:11.282Z,102371.75
2023-04-30T06:51:38.384Z,102373.22
2023-04-30T06:54:09.473Z,102385.03
2023-04-30T06:56:36.358Z,102375.34
2023-04-30T06:59:03.911Z,102364.41
2023-04-30T07:01:31.116Z,102370.84
2023-04-30T07:03:58.051Z,102351.66
2023-04-30T07:06:28.632Z,102356.28
2023-04-30T07:09:00.801Z,102343.69
2023-04-30T07:11:27.779Z,102362.50
2023-04-30T07:13:54.617Z,102371.00
2023-04-30T07:16:25.289Z,102283.69
2023-04-30T07:18:54.367Z,102360.72
2023-04-30T07:21:25.653Z,102363.22
2023-04-30T07:23:52.775Z,102351.91
2023-04-30T07:26:25.119Z,102349.97
2023-04-30T07:28:54.515Z,102354.63
2023-04-30T07:31:23.429Z,102358.34
2023-04-30T07:33:52.448Z,102359.25
2023-04-30T07:36:19.050Z,102349.22
2023-04-30T07:38:45.694Z,102365.09
2023-04-30T07:41:17.428Z,102289.66
2023-04-30T07:43:44.060Z,102354.28
2023-04-30T07:46:10.674Z,102357.25
2023-04-30T07:48:40.440Z,102365.63
2023-04-30T07:51:07.052Z,102355.00
2023-04-30T07:53:33.676Z,102356.06
2023-04-30T07:56:00.467Z,102373.19
2023-04-30T07:58:27.068Z,102363.50
2023-04-30T08:00:56.172Z,102353.09
2023-04-30T08:03:22.842Z,102381.22
2023-04-30T08:05:49.570Z,102373.66
2023-04-30T08:08:16.188Z,102363.28
2023-04-30T08:10:44.995Z,102379.84
2023-04-30T08:13:11.617Z,102382.84
2023-04-30T08:15:40.065Z,102384.28
2023-04-30T08:18:06.681Z,102382.06
2023-04-30T08:20:33.434Z,102384.41
2023-04-30T08:23:00.054Z,102388.19
2023-04-30T08:25:26.704Z,102392.81
2023-04-30T08:27:55.831Z,102365.50
2023-04-30T08:30:26.992Z,102387.41
2023-04-30T08:32:55.933Z,102391.00
2023-04-30T08:35:23.503Z,102380.41
2023-04-30T08:37:53.500Z,102386.88
2023-04-30T08:40:21.006Z,102368.41
2023-04-30T08:43:04.907Z,102388.03
2023-04-30T08:45:41.477Z,102388.31
2023-04-30T08:48:14.076Z,102384.50
2023-04-30T08:50:43.006Z,102371.69
2023-04-30T08:53:11.117Z,102382.06
2023-04-30T08:55:42.610Z,102373.22
2023-04-30T08:58:10.673Z,102373.44
2023-04-30T09:00:38.696Z,102380.00
2023-04-30T09:03:06.334Z,102375.88
2023-04-30T09:05:38.737Z,102373.97
2023-04-30T09:08:11.580Z,102367.13
2023-04-30T09:10:38.428Z,102370.41
2023-04-30T09:13:09.389Z,102313.94
2023-04-30T09:15:39.052Z,102370.34
2023-04-30T09:18:16.342Z,102373.00
2023-04-30T09:21:03.388Z,102370.94
2023-04-30T09:23:30.772Z,102368.91
2023-04-30T09:26:02.192Z,102372.88
2023-04-30T09:28:33.853Z,102373.81
2023-04-30T09:31:03.272Z,102373.16
2023-04-30T09:33:46.622Z,102329.34
2023-04-30T09:36:13.719Z,102356.44
2023-04-30T09:38:40.765Z,102355.75
2023-04-30T09:41:29.601Z,102366.22
2023-04-30T09:43:58.690Z,102342.72
2023-04-30T09:46:33.297Z,102358.91
2023-04-30T09:49:01.739Z,102356.44
2023-04-30T09:51:31.767Z,102363.81
2023-04-30T09:54:02.066Z,102357.31
2023-04-30T09:56:31.421Z,102340.78
2023-04-30T09:59:01.919Z,102343.50
2023-04-30T10:01:31.267Z,102343.75
2023-04-30T10:03:58.505Z,102340.72
2023-04-30T10:06:35.413Z,102337.66
2023-04-30T10:09:06.042Z,102337.00
2023-04-30T10:11:36.135Z,102338.25
2023-04-30T10:14:08.694Z,102328.94
2023-04-30T10:16:49.300Z,102336.00
2023-04-30T10:19:32.355Z,102330.00
2023-04-30T10:22:01.123Z,102325.94
2023-04-30T10:24:27.887Z,102323.19
2023-04-30T10:26:55.208Z,102330.69
2023-04-30T10:29:21.748Z,102334.44
2023-04-30T10:31:50.441Z,102340.00
2023-04-30T10:34:33.214Z,102326.50
2023-04-30T10:37:10.752Z,102324.59
2023-04-30T10:39:38.872Z,102321.44
2023-04-30T10:42:13.273Z,102321.97
2023-04-30T10:44:42.679Z,102302.28
2023-04-30T10:47:09.585Z,102295.56
2023-04-30T10:49:36.411Z,102311.09
2023-04-30T10:52:04.634Z,102311.94
2023-04-30T10:54:32.056Z,102306.78
2023-04-30T10:57:17.796Z,102309.56
2023-04-30T11:00:07.974Z,102278.22
2023-04-30T11:02:47.384Z,102274.38
2023-04-30T11:05:18.889Z,102290.44
2023-04-30T11:07:56.740Z,102264.44
2023-04-30T11:10:25.356Z,102288.75
2023-04-30T11:12:54.629Z,102279.44
2023-04-30T11:15:25.761Z,102279.69
2023-04-30T11:18:00.197Z,102276.88
2023-04-30T11:20:27.077Z,102265.72
2023-04-30T11:23:28.196Z,102227.72
2023-04-30T11:26:07.285Z,102277.03
2023-04-30T11:28:39.705Z,102264.31
2023-04-30T11:31:06.509Z,102268.72
2023-04-30T11:33:35.047Z,102253.38
2023-04-30T11:36:02.440Z,102256.16
2023-04-30T11:38:38.874Z,102243.31
2023-04-30T11:41:05.611Z,102256.03
2023-04-30T11:43:33.797Z,102164.16
2023-04-30T11:46:03.679Z,102238.91
2023-04-30T11:48:52.800Z,102225.78
2023-04-30T11:51:19.414Z,102226.97
2023-04-30T11:53:50.730Z,102227.78
2023-04-30T11:56:22.550Z,102238.34
2023-04-30T11:58:50.215Z,102232.13
2023-04-30T12:01:18.053Z,102220.72
2023-04-30T12:03:49.678Z,102220.31
2023-04-30T12:06:27.559Z,102224.69
2023-04-30T12:08:56.193Z,102217.81
2023-04-30T12:11:27.117Z,102213.19
2023-04-30T12:14:02.813Z,102181.34
2023-04-30T12:16:42.869Z,102196.78
2023-04-30T12:19:12.639Z,102193.81
2023-04-30T12:21:47.419Z,102209.25
2023-04-30T12:24:19.316Z,102205.56
2023-04-30T12:26:46.705Z,102208.34
2023-04-30T12:29:16.379Z,102206.53
2023-04-30T12:31:43.715Z,102199.63
2023-04-30T12:34:13.690Z,102207.81
2023-04-30T12:36:44.813Z,102196.03
2023-04-30T12:39:16.211Z,102143.25
2023-04-30T12:41:47.644Z,102198.75
2023-04-30T12:44:24.830Z,102180.66
2023-04-30T12:46:56.229Z,102180.38
2023-04-30T12:49:33.760Z,102195.53
2023-04-30T12:52:03.195Z,102197.59
2023-04-30T12:54:34.630Z,102194.66
2023-04-30T12:57:03.276Z,102191.81
2023-04-30T12:59:37.536Z,102167.66
2023-04-30T13:02:13.580Z,102171.66
2023-04-30T13:04:42.101Z,102185.72
2023-04-30T13:07:11.343Z,102174.06
2023-04-30T13:09:38.445Z,102183.94
2023-04-30T13:12:06.261Z,102160.53
2023-04-30T13:14:36.318Z,102164.41
2023-04-30T13:17:05.944Z,102170.41
2023-04-30T13:19:35.283Z,102146.38
2023-04-30T13:22:01.982Z,102130.53
2023-04-30T13:24:31.396Z,102155.50
2023-04-30T13:26:59.276Z,102161.56
2023-04-30T13:29:25.952Z,102146.50
2023-04-30T13:31:52.703Z,102152.66
2023-04-30T13:34:21.816Z,102150.53
2023-04-30T13:36:52.124Z,102148.19
2023-04-30T13:39:19.717Z,102143.44
2023-04-30T13:41:47.910Z,102143.28
2023-04-30T13:44:17.114Z,102139.28
2023-04-30T13:46:43.899Z,102135.25
2023-04-30T13:49:10.491Z,102120.91
2023-04-30T13:51:37.390Z,102118.78
2023-04-30T13:54:04.112Z,102132.59
2023-04-30T13:56:30.691Z,102131.44
2023-04-30T13:58:59.490Z,102109.63
2023-04-30T14:01:26.315Z,102119.16
2023-04-30T14:03:53.134Z,102135.06
2023-04-30T14:06:22.429Z,102121.00
2023-04-30T14:08:49.024Z,102122.94
2023-04-30T14:11:15.735Z,102118.00
2023-04-30T14:13:42.505Z,102111.50
2023-04-30T14:16:09.180Z,102091.25
2023-04-30T14:18:35.816Z,102091.81
2023-04-30T14:21:02.476Z,102112.59
2023-04-30T14:23:29.328Z,102116.91
2023-04-30T14:25:56.515Z,102111.50
2023-04-30T14:28:23.136Z,102116.44
2023-04-30T14:30:49.826Z,102113.25
2023-04-30T14:33:18.598Z,102103.06
2023-04-30T14:35:46.334Z,102108.19
2023-04-30T14:38:13.765Z,102086.16
2023-04-30T14:40:40.579Z,102111.06
2023-04-30T14:43:09.377Z,102093.09
2023-04-30T14:45:35.987Z,102072.66
2023-04-30T14:48:05.696Z,102099.44
2023-04-30T14:50:34.884Z,102100.31
2023-04-30T14:53:01.708Z,102095.25
2023-04-30T14:55:28.372Z,102077.91
2023-04-30T14:57:55.168Z,102088.66
2023-04-30T15:00:24.003Z,102083.06
2023-04-30T15:02:51.079Z,102071.50
2023-04-30T15:05:17.708Z,101999.09
2023-04-30T15:07:49.007Z,102062.84
2023-04-30T15:10:15.617Z,102057.00
2023-04-30T15:12:42.369Z,102070.75
2023-04-30T15:15:11.746Z,102087.97
2023-04-30T15:17:41.458Z,102065.75
2023-04-30T15:20:08.819Z,102066.13
2023-04-30T15:22:37.652Z,102071.28
2023-04-30T15:25:08.010Z,102063.09
2023-04-30T15:27:35.133Z,102063.09
2023-04-30T15:30:01.715Z,101997.09
2023-04-30T15:32:28.339Z,102064.66
2023-04-30T15:34:55.232Z,102057.06
2023-04-30T15:37:25.963Z,102051.53
2023-04-30T15:39:52.809Z,102002.09
2023-04-30T15:42:19.662Z,102039.00
2023-04-30T15:44:46.368Z,102048.03
2023-04-30T15:47:13.060Z,102052.88
2023-04-30T15:49:43.563Z,102053.34
2023-04-30T15:52:15.107Z,102050.72
2023-04-30T15:54:46.362Z,102036.19
2023-04-30T15:57:13.361Z,102037.56
2023-04-30T15:59:40.082Z,102041.00
2023-04-30T16:02:06.726Z,102023.00
2023-04-30T16:04:35.636Z,102031.25
2023-04-30T16:07:02.254Z,102024.31
2023-04-30T16:09:29.101Z,102017.69
2023-04-30T16:11:56.297Z,101976.09
2023-04-30T16:14:25.358Z,101991.69
2023-04-30T16:16:54.424Z,102008.31
2023-04-30T16:19:23.433Z,101981.31
2023-04-30T16:21:50.120Z,102016.75
2023-04-30T16:24:16.696Z,102012.47
2023-04-30T16:26:43.295Z,102009.38
2023-04-30T16:29:12.463Z,101998.16
2023-04-30T16:31:39.226Z,102010.72
2023-04-30T16:34:06.351Z,102020.25
2023-04-30T16:36:35.308Z,102013.56
2023-04-30T16:39:02.064Z,102011.81
2023-04-30T16:41:28.752Z,102006.91
2023-04-30T16:43:57.745Z,101931.38
2023-04-30T16:46:24.347Z,101993.38
2023-04-30T16:48:53.217Z,101987.09
2023-04-30T16:51:22.218Z,101985.81
2023-04-30T16:53:51.250Z,101979.31
2023-04-30T16:56:23.304Z,101978.63
2023-04-30T16:58:49.969Z,101991.38
2023-04-30T17:01:19.307Z,101963.16
2023-04-30T17:03:46.397Z,101990.81
2023-04-30T17:06:14.353Z,101982.91
2023-04-30T17:08:41.217Z,101989.16
2023-04-30T17:11:07.873Z,101964.28
2023-04-30T17:13:34.488Z,101980.19
2023-04-30T17:16:02.175Z,101974.00
2023-04-30T17:18:31.989Z,101977.63
2023-04-30T17:20:58.607Z,101969.84
2023-04-30T17:23:25.709Z,101973.31
2023-04-30T17:25:55.607Z,101962.28
2023-04-30T17:28:24.595Z,101964.53
2023-04-30T17:30:51.361Z,101966.63
2023-04-30T17:33:23.324Z,101950.22
2023-04-30T17:35:53.181Z,101970.09
2023-04-30T17:38:19.753Z,101965.25
2023-04-30T17:40:46.360Z,101953.53
2023-04-30T17:43:12.920Z,101969.22
2023-04-30T17:45:39.489Z,101909.97
2023-04-30T17:48:06.072Z,101944.03
2023-04-30T17:50:32.683Z,101958.50
2023-04-30T17:52:59.261Z,101959.16
2023-04-30T17:55:28.253Z,101961.91
2023-04-30T17:57:59.392Z,101964.50
2023-04-30T18:00:26.319Z,101956.38
2023-04-30T18:02:55.267Z,101961.72
2023-04-30T18:05:22.412Z,101955.34
2023-04-30T18:07:48.994Z,101962.38
2023-04-30T18:10:15.631Z,101959.09
2023-04-30T18:12:42.454Z,101958.56
2023-04-30T18:15:09.377Z,101953.91
2023-04-30T18:17:37.519Z,101942.31
2023-04-30T18:20:04.824Z,101941.28
2023-04-30T18:22:32.052Z,101944.16
2023-04-30T18:25:00.397Z,101944.50
2023-04-30T18:27:27.575Z,101955.66
2023-04-30T18:29:57.989Z,101943.41
2023-04-30T18:32:27.433Z,101933.84
2023-04-30T18:34:54.247Z,101941.41
2023-04-30T18:37:22.223Z,101932.41
2023-04-30T18:39:51.767Z,101949.78
2023-04-30T18:42:18.488Z,101940.63
2023-04-30T18:44:49.130Z,101943.50
2023-04-30T18:47:16.484Z,101942.09
2023-04-30T18:49:44.243Z,101925.47
2023-04-30T18:52:10.882Z,101946.13
2023-04-30T18:54:37.952Z,101936.94
2023-04-30T18:57:05.174Z,101942.94
2023-04-30T18:59:32.034Z,101937.38
2023-04-30T19:01:58.747Z,101932.59
2023-04-30T19:04:25.351Z,101937.88
2023-04-30T19:06:55.688Z,101918.59
2023-04-30T19:09:22.455Z,101939.59
2023-04-30T19:11:51.375Z,101931.34
2023-04-30T19:14:18.040Z,101946.97
2023-04-30T19:16:47.388Z,101956.56
2023-04-30T19:19:14.059Z,101892.88
2023-04-30T19:21:43.780Z,101955.06
2023-04-30T19:24:10.420Z,101943.41
2023-04-30T19:26:38.039Z,101954.13
2023-04-30T19:29:04.775Z,101935.41
2023-04-30T19:31:36.250Z,101936.56
2023-04-30T19:34:03.792Z,101947.56
2023-04-30T19:36:30.305Z,101946.31
2023-04-30T19:38:59.336Z,101940.56
2023-04-30T19:41:27.205Z,101946.91
2023-04-30T19:43:53.774Z,101945.06
2023-04-30T19:46:21.158Z,101956.22
2023-04-30T19:48:47.902Z,101931.28
2023-04-30T19:51:14.769Z,101956.13
2023-04-30T19:53:41.473Z,101959.47
2023-04-30T19:56:08.646Z,101942.56
2023-04-30T19:58:35.396Z,101944.06
2023-04-30T20:01:02.128Z,101954.91
2023-04-30T20:03:32.107Z,101947.25
2023-04-30T20:05:58.821Z,101948.25
2023-04-30T20:08:25.475Z,101950.31
2023-04-30T20:10:52.224Z,101947.28
2023-04-30T20:13:22.685Z,101950.19
2023-04-30T20:15:49.341Z,101931.72
2023-04-30T20:18:16.230Z,101938.09
2023-04-30T20:20:45.764Z,101947.03
2023-04-30T20:23:16.854Z,101949.06
2023-04-30T20:25:45.425Z,101944.72
2023-04-30T20:28:13.486Z,101938.09
2023-04-30T20:30:43.006Z,101930.91
2023-04-30T20:33:16.368Z,101941.31
2023-04-30T20:35:47.348Z,101927.47
2023-04-30T20:38:14.745Z,101922.13
2023-04-30T20:40:41.599Z,101924.44
2023-04-30T20:43:11.253Z,101931.53
2023-04-30T20:45:40.736Z,101924.31
2023-04-30T20:48:08.877Z,101934.28
2023-04-30T20:50:36.661Z,101927.47
2023-04-30T20:53:03.415Z,101935.28
2023-04-30T20:55:30.371Z,101935.56
2023-04-30T20:57:57.086Z,101929.38
2023-04-30T21:00:23.806Z,101935.00
2023-04-30T21:02:54.021Z,101909.91
2023-04-30T21:05:20.871Z,101879.31
2023-04-30T21:07:47.484Z,101937.31
2023-04-30T21:10:14.154Z,101892.59
2023-04-30T21:12:40.944Z,101924.03
2023-04-30T21:15:09.213Z,101911.34
2023-04-30T21:17:38.360Z,101905.13
2023-04-30T21:20:05.396Z,101913.94
2023-04-30T21:22:32.489Z,101898.78
2023-04-30T21:24:59.190Z,101901.25
2023-04-30T21:27:28.107Z,101866.56
2023-04-30T21:29:55.077Z,101907.59
2023-04-30T21:32:22.109Z,101886.19
2023-04-30T21:34:48.916Z,101900.34
2023-04-30T21:37:17.392Z,101904.13
2023-04-30T21:39:46.433Z,101898.91
2023-04-30T21:42:15.726Z,101886.47
2023-04-30T21:44:44.690Z,101903.34
2023-04-30T21:47:11.344Z,101898.88
2023-04-30T21:49:38.146Z,101898.72
2023-04-30T21:52:08.210Z,101805.34
2023-04-30T21:54:35.026Z,101893.25
2023-04-30T21:57:02.695Z,101893.94
2023-04-30T21:59:29.527Z,101888.88
2023-04-30T22:01:56.631Z,101886.28
2023-04-30T22:04:25.406Z,101858.84
2023-04-30T22:06:54.672Z,101885.84
2023-04-30T22:09:25.120Z,101880.34
2023-04-30T22:11:52.125Z,101844.84
2023-04-30T22:14:23.974Z,101816.69
2023-04-30T22:16:51.306Z,101868.91
2023-04-30T22:19:23.075Z,101875.13
2023-04-30T22:21:52.299Z,101871.78
2023-04-30T22:24:19.340Z,101860.53
2023-04-30T22:26:46.384Z,101825.31
2023-04-30T22:29:16.422Z,101829.75
2023-04-30T22:31:43.822Z,101853.16
2023-04-30T22:34:10.976Z,101830.63
2023-04-30T22:36:40.853Z,101783.06
2023-04-30T22:39:10.118Z,101849.66
2023-04-30T22:41:37.361Z,101849.34
2023-04-30T22:44:08.166Z,101856.53
2023-04-30T22:46:40.532Z,101787.38
2023-04-30T22:49:19.996Z,101822.75
2023-04-30T22:51:57.036Z,101856.47
2023-04-30T22:54:24.336Z,101811.31
2023-04-30T22:56:54.509Z,101856.88
2023-04-30T22:59:21.655Z,101794.78
2023-04-30T23:01:50.966Z,101825.38
2023-04-30T23:04:17.762Z,101847.91
2023-04-30T23:06:47.255Z,101805.28
2023-04-30T23:09:16.358Z,101809.03
2023-04-30T23:11:45.874Z,101843.69
2023-04-30T23:14:13.293Z,101830.47
2023-04-30T23:16:43.222Z,101845.44
2023-04-30T23:19:10.747Z,101841.72
2023-04-30T23:21:39.834Z,101717.66
2023-04-30T23:24:08.981Z,101832.63
2023-04-30T23:26:35.856Z,101819.03
2023-04-30T23:29:02.943Z,101800.44
2023-04-30T23:31:30.504Z,101776.88
2023-04-30T23:33:57.423Z,101825.44
2023-04-30T23:36:24.328Z,101794.19
2023-04-30T23:38:51.750Z,101818.69
2023-04-30T23:41:20.944Z,101822.31
2023-04-30T23:43:50.281Z,101820.56
2023-04-30T23:46:17.356Z,101768.88
2023-04-30T23:48:46.947Z,101800.38
2023-04-30T23:51:15.932Z,101809.88
2023-04-30T23:53:42.817Z,101806.63
2023-04-30T23:56:11.860Z,101811.22
2023-04-30T23:58:41.299Z,101795.94
